Time;durP1;ratioP1;P1;durP2;ratioP2;P2;SDS_P1;SDS_P2;PMS_P1;PMS_P2;Temp;Humidity;BMP_temperature;BMP_pressure;BME280_temperature;BME280_humidity;BME280_pressure;Samples;Min_cycle;Max_cycle;Signal;HPM_P1;HPM_P2
2022/05/27 00:01:10;;;;;;;;;;;;;;;17.02;45.19;101112.25;5070192;28;1980;-59
2022/05/27 00:03:35;;;;;;;;;;;;;;;16.91;44.27;101112.22;5077036;28;818;-59
2022/05/27 00:06:01;;;;;;;;;;;;;;;16.76;43.68;101109.38;5077479;28;822;-59
2022/05/27 00:08:28;;;;;;;;;;;;;;;16.76;42.95;101112.09;5076935;28;808;-58
2022/05/27 00:10:54;;;;;;;;;;;;;;;16.70;42.80;101110.41;5057710;28;899;-58
2022/05/27 00:13:19;;;;;;;;;;;;;;;16.68;42.38;101118.09;5057561;28;980;-59
2022/05/27 00:15:45;;;;;;;;;;;;;;;16.65;42.07;101116.72;5057925;28;1203;-59
2022/05/27 00:18:10;;;;;;;;;;;;;;;16.64;42.19;101108.75;5064303;28;862;-59
2022/05/27 00:20:35;;;;;;;;;;;;;;;16.54;41.82;101106.75;5057733;28;909;-59
2022/05/27 00:23:01;;;;;;;;;;;;;;;16.52;42.07;101106.19;5063645;28;1983;-59
2022/05/27 00:25:27;;;;;;;;;;;;;;;16.48;41.82;101108.66;5057631;28;801;-59
2022/05/27 00:27:52;;;;;;;;;;;;;;;16.39;41.97;101105.56;5057801;28;801;-59
2022/05/27 00:30:18;;;;;;;;;;;;;;;16.46;41.90;101115.50;5057451;28;919;-59
2022/05/27 00:32:43;;;;;;;;;;;;;;;16.45;41.83;101113.81;5064299;28;934;-59
2022/05/27 00:35:08;;;;;;;;;;;;;;;16.42;41.79;101109.69;5060204;28;817;-59
2022/05/27 00:37:34;;;;;;;;;;;;;;;16.37;41.60;101113.22;5057806;28;806;-59
2022/05/27 00:39:59;;;;;;;;;;;;;;;16.34;41.54;101110.19;5057222;28;818;-59
2022/05/27 00:42:25;;;;;;;;;;;;;;;16.33;41.75;101108.53;5057078;28;1971;-61
2022/05/27 00:44:50;;;;;;;;;;;;;;;16.35;41.46;101107.16;5057648;28;889;-61
2022/05/27 00:47:16;;;;;;;;;;;;;;;16.40;41.43;101125.59;5065181;28;970;-62
2022/05/27 00:49:46;;;;;;;;;;;;;;;16.32;41.59;101113.19;5057427;28;746;-61
2022/05/27 00:52:12;;;;;;;;;;;;;;;16.33;41.55;101117.59;5038425;28;1126;-60
2022/05/27 00:54:37;;;;;;;;;;;;;;;16.32;41.66;101107.69;5039559;28;786;-61
2022/05/27 00:57:10;;;;;;;;;;;;;;;16.24;41.63;101108.19;5057206;28;783;-61
2022/05/27 00:59:36;;;;;;;;;;;;;;;16.31;41.46;101107.97;5041579;28;861;-60
2022/05/27 01:02:01;;;;;;;;;;;;;;;16.28;41.47;101114.81;5071974;28;1918;-60
2022/05/27 01:04:27;;;;;;;;;;;;;;;16.35;41.36;101112.66;5076091;28;783;-60
2022/05/27 01:06:53;;;;;;;;;;;;;;;16.33;41.53;101105.81;5056749;28;794;-61
2022/05/27 01:09:18;;;;;;;;;;;;;;;16.28;41.36;101103.00;5057144;28;810;-61
2022/05/27 01:11:49;;;;;;;;;;;;;;;16.23;41.66;101110.13;5057664;28;784;-61
2022/05/27 01:14:20;;;;;;;;;;;;;;;16.26;41.20;101111.50;5043306;28;1209;-59
2022/05/27 01:16:46;;;;;;;;;;;;;;;16.21;41.21;101114.22;5062921;28;873;-59
2022/05/27 01:22:07;;;;;;;;;;;;;;;16.13;41.66;101111.94;5075408;28;1901;-61
2022/05/27 01:24:33;;;;;;;;;;;;;;;16.22;41.17;101121.34;5075516;28;787;-60
2022/05/27 01:27:04;;;;;;;;;;;;;;;16.17;41.46;101129.53;5056215;28;820;-61
2022/05/27 01:29:39;;;;;;;;;;;;;;;16.15;41.38;101126.25;5056779;28;944;-62
2022/05/27 01:32:10;;;;;;;;;;;;;;;16.17;41.51;101118.56;5063007;28;828;-61
2022/05/27 01:34:55;;;;;;;;;;;;;;;16.14;41.39;101113.59;5056471;28;801;-61
2022/05/27 01:37:36;;;;;;;;;;;;;;;16.15;41.27;101115.28;5059187;28;884;-61
2022/05/27 01:40:05;;;;;;;;;;;;;;;16.10;41.65;101117.97;5040210;28;841;-61
2022/05/27 01:42:42;;;;;;;;;;;;;;;16.17;41.38;101115.81;5056526;28;1906;-61
2022/05/27 01:45:28;;;;;;;;;;;;;;;16.17;41.32;101126.78;5074687;28;927;-61
2022/05/27 01:47:58;;;;;;;;;;;;;;;16.12;41.49;101121.25;5045639;28;1234;-61
2022/05/27 01:50:28;;;;;;;;;;;;;;;16.04;41.41;101120.66;5058987;28;948;-61
2022/05/27 01:53:12;;;;;;;;;;;;;;;16.06;41.71;101121.25;5038056;28;996;-61
2022/05/27 01:55:40;;;;;;;;;;;;;;;16.06;41.29;101117.66;5061384;28;785;-61
2022/05/27 01:58:26;;;;;;;;;;;;;;;16.07;41.39;101122.91;5056910;28;893;-61
2022/05/27 02:00:51;;;;;;;;;;;;;;;16.10;41.58;101120.72;5073621;28;1099;-61
2022/05/27 02:03:18;;;;;;;;;;;;;;;16.10;41.37;101117.97;5043294;28;1914;-61
2022/05/27 02:05:47;;;;;;;;;;;;;;;16.10;41.05;101123.44;5056508;28;750;-62
2022/05/27 02:08:13;;;;;;;;;;;;;;;16.10;41.34;101117.97;5038324;28;870;-62
2022/05/27 02:10:59;;;;;;;;;;;;;;;16.07;41.11;101119.31;5038381;28;806;-63
2022/05/27 02:13:45;;;;;;;;;;;;;;;16.04;41.12;101123.41;5056375;28;773;-62
2022/05/27 02:16:16;;;;;;;;;;;;;;;16.07;41.35;101124.78;5040779;28;883;-62
2022/05/27 02:18:49;;;;;;;;;;;;;;;16.04;41.26;101119.84;5037561;28;882;-60
2022/05/27 02:21:24;;;;;;;;;;;;;;;16.01;41.11;101121.19;5051457;28;1898;-61
2022/05/27 02:24:05;;;;;;;;;;;;;;;15.99;41.39;101123.38;5057494;28;814;-60
2022/05/27 02:26:34;;;;;;;;;;;;;;;16.05;41.36;101111.34;5075247;28;810;-60
2022/05/27 02:29:04;;;;;;;;;;;;;;;15.97;41.37;101120.03;5072250;28;829;-60
2022/05/27 02:31:31;;;;;;;;;;;;;;;16.10;41.11;101120.72;5044559;28;867;-60
2022/05/27 02:36:42;;;;;;;;;;;;;;;15.99;41.26;101122.53;5041006;28;920;-59
2022/05/27 02:39:08;;;;;;;;;;;;;;;15.97;41.38;101120.03;5059505;28;803;-60
2022/05/27 02:41:54;;;;;;;;;;;;;;;15.92;41.16;101133.72;5061289;28;1905;-59
2022/05/27 02:44:24;;;;;;;;;;;;;;;16.02;41.14;101127.50;5059349;28;850;-60
2022/05/27 02:47:11;;;;;;;;;;;;;;;15.89;41.49;101123.25;5067313;28;1560;-60
2022/05/27 02:49:47;;;;;;;;;;;;;;;15.94;41.26;101130.72;5074182;28;940;-59
2022/05/27 02:52:16;;;;;;;;;;;;;;;15.99;41.24;101131.59;5070465;28;1103;-59
2022/05/27 02:54:43;;;;;;;;;;;;;;;15.96;41.50;101132.09;5071628;28;830;-59
2022/05/27 02:57:19;;;;;;;;;;;;;;;15.94;41.46;101137.03;5049784;28;1179;-61
2022/05/27 02:59:45;;;;;;;;;;;;;;;15.93;41.26;101134.56;5060324;28;859;-61
2022/05/27 03:02:12;;;;;;;;;;;;;;;15.89;41.37;101120.53;5065490;28;1909;-62
2022/05/27 03:04:48;;;;;;;;;;;;;;;15.98;41.22;101129.94;5059620;28;1076;-59
2022/05/27 03:07:25;;;;;;;;;;;;;;;15.91;41.49;101132.91;5047075;28;1100;-59
2022/05/27 03:09:54;;;;;;;;;;;;;;;15.98;41.22;101143.66;5050626;28;1286;-59
2022/05/27 03:12:35;;;;;;;;;;;;;;;15.94;41.25;101134.28;5068416;28;1215;-60
2022/05/27 03:15:10;;;;;;;;;;;;;;;15.86;41.52;101132.84;5072970;28;1206;-60
2022/05/27 03:17:50;;;;;;;;;;;;;;;15.92;41.42;101144.69;5055506;28;1175;-59
2022/05/27 03:20:26;;;;;;;;;;;;;;;15.98;41.26;101148.31;5066218;28;1084;-59
2022/05/27 03:23:12;;;;;;;;;;;;;;;15.93;41.30;101145.53;5070299;28;1981;-59
2022/05/27 03:25:40;;;;;;;;;;;;;;;15.97;41.30;101144.72;5056106;28;1262;-59
2022/05/27 03:28:12;;;;;;;;;;;;;;;15.98;41.32;101143.66;5059982;28;965;-59
2022/05/27 03:30:45;;;;;;;;;;;;;;;16.02;41.16;101138.47;5076570;28;820;-60
2022/05/27 03:33:13;;;;;;;;;;;;;;;15.97;41.45;101150.22;5048261;28;798;-60
2022/05/27 03:35:43;;;;;;;;;;;;;;;16.01;41.21;101153.28;5058583;28;818;-59
2022/05/27 03:38:19;;;;;;;;;;;;;;;16.01;41.21;101154.09;5040923;28;1044;-60
2022/05/27 03:40:51;;;;;;;;;;;;;;;15.99;41.30;101161.78;5060062;28;819;-64
2022/05/27 03:43:16;;;;;;;;;;;;;;;15.99;41.39;101167.25;5058113;28;1978;-62
2022/05/27 03:45:48;;;;;;;;;;;;;;;15.99;41.04;101169.16;5053719;28;874;-62
2022/05/27 03:48:14;;;;;;;;;;;;;;;15.97;41.05;101169.41;5058370;28;918;-61
2022/05/27 03:50:39;;;;;;;;;;;;;;;16.01;40.86;101167.00;5059319;28;746;-64
2022/05/27 03:53:05;;;;;;;;;;;;;;;15.92;41.18;101172.09;5058058;28;773;-61
2022/05/27 03:55:30;;;;;;;;;;;;;;;15.93;40.92;101171.03;5058126;28;834;-65
2022/05/27 03:57:56;;;;;;;;;;;;;;;15.91;41.32;101170.47;5059624;28;848;-64
2022/05/27 04:00:21;;;;;;;;;;;;;;;15.90;41.22;101175.09;5072657;28;949;-65
2022/05/27 04:02:46;;;;;;;;;;;;;;;15.95;40.98;101170.75;5057689;28;1910;-61
2022/05/27 04:05:13;;;;;;;;;;;;;;;15.93;41.29;101170.22;5057401;28;742;-61
2022/05/27 04:07:38;;;;;;;;;;;;;;;15.98;41.01;101176.56;5057584;28;1284;-63
2022/05/27 04:10:05;;;;;;;;;;;;;;;15.97;41.17;101180.38;5060602;28;750;-63
2022/05/27 04:12:30;;;;;;;;;;;;;;;15.97;41.23;101174.91;5060025;28;1443;-63
2022/05/27 04:14:55;;;;;;;;;;;;;;;16.17;42.14;101168.78;5058065;28;1055;-62
2022/05/27 04:17:33;;;;;;;;;;;;;;;16.39;43.12;101170.59;5059386;28;767;-63
2022/05/27 04:20:03;;;;;;;;;;;;;;;16.54;44.49;101172.66;5058172;28;794;-62
2022/05/27 04:22:29;;;;;;;;;;;;;;;16.73;45.01;101179.38;5057884;28;1905;-63
2022/05/27 04:24:55;;;;;;;;;;;;;;;16.89;45.51;101187.72;5058407;28;1029;-63
2022/05/27 04:27:20;;;;;;;;;;;;;;;16.97;45.90;101195.47;5057807;28;735;-63
2022/05/27 04:29:47;;;;;;;;;;;;;;;17.08;46.16;101188.09;5057672;28;834;-62
2022/05/27 04:32:13;;;;;;;;;;;;;;;17.14;46.39;101183.44;5063819;28;864;-63
2022/05/27 04:34:38;;;;;;;;;;;;;;;17.16;46.24;101193.09;5057688;28;750;-62
2022/05/27 04:37:04;;;;;;;;;;;;;;;17.07;45.78;101198.28;5042942;28;876;-60
2022/05/27 04:39:29;;;;;;;;;;;;;;;16.96;44.73;101204.81;5059791;28;1077;-60
2022/05/27 04:41:55;;;;;;;;;;;;;;;16.80;43.69;101186.53;5069770;28;1909;-60
2022/05/27 04:44:20;;;;;;;;;;;;;;;16.77;43.30;101199.72;5042190;28;1246;-60
2022/05/27 04:46:46;;;;;;;;;;;;;;;16.68;42.67;101197.72;5072701;28;1223;-59
2022/05/27 04:49:50;;;;;;;;;;;;;;;16.65;42.20;101196.34;5069050;28;1191;-60
2022/05/27 04:51:57;;;;;;;;;;;;;;;16.54;42.10;101184.44;5070343;28;1425;-60
2022/05/27 04:54:22;;;;;;;;;;;;;;;16.55;42.23;101190.75;5066352;28;1231;-62
2022/05/27 04:56:48;;;;;;;;;;;;;;;16.52;41.67;101192.13;5058623;28;1143;-65
2022/05/27 04:59:13;;;;;;;;;;;;;;;16.43;41.83;101185.47;5054900;28;884;-63
2022/05/27 05:01:39;;;;;;;;;;;;;;;16.50;41.46;101188.00;5056308;28;1917;-64
2022/05/27 05:04:04;;;;;;;;;;;;;;;16.48;41.29;101192.91;5055157;28;866;-63
2022/05/27 05:06:29;;;;;;;;;;;;;;;16.48;41.38;101203.88;5053929;28;886;-64
2022/05/27 05:08:55;;;;;;;;;;;;;;;16.43;41.53;101194.50;5034630;28;855;-63
2022/05/27 05:11:20;;;;;;;;;;;;;;;16.46;41.48;101206.06;5050468;28;899;-63
2022/05/27 05:13:46;;;;;;;;;;;;;;;16.45;41.44;101204.41;5054261;28;1001;-63
2022/05/27 05:16:11;;;;;;;;;;;;;;;16.43;41.54;101194.50;5051613;28;856;-63
2022/05/27 05:18:37;;;;;;;;;;;;;;;16.43;41.28;101197.25;5054988;28;1100;-64
2022/05/27 05:21:02;;;;;;;;;;;;;;;16.43;41.52;101200.00;5058426;28;1183;-63
2022/05/27 05:23:28;;;;;;;;;;;;;;;16.49;41.53;101197.31;5053953;28;1983;-63
2022/05/27 05:25:53;;;;;;;;;;;;;;;16.41;41.65;101196.69;5053183;28;902;-62
2022/05/27 05:28:18;;;;;;;;;;;;;;;16.38;41.73;101188.16;5061521;28;916;-64
2022/05/27 05:30:44;;;;;;;;;;;;;;;16.51;41.27;101189.63;5056365;28;899;-63
2022/05/27 05:33:09;;;;;;;;;;;;;;;16.46;41.32;101187.66;5064928;28;841;-62
2022/05/27 05:35:35;;;;;;;;;;;;;;;16.46;41.59;101186.84;5056838;28;819;-63
2022/05/27 05:38:00;;;;;;;;;;;;;;;16.43;41.56;101189.03;5050992;28;842;-62
2022/05/27 05:40:25;;;;;;;;;;;;;;;16.35;41.51;101189.50;5053580;28;860;-62
2022/05/27 05:42:51;;;;;;;;;;;;;;;16.37;41.57;101195.56;5054672;28;1980;-63
2022/05/27 05:45:17;;;;;;;;;;;;;;;16.46;42.81;101192.34;5058348;28;893;-61
2022/05/27 05:47:43;;;;;;;;;;;;;;;16.38;42.42;101183.50;5059505;28;868;-61
2022/05/27 05:50:09;;;;;;;;;;;;;;;16.47;41.93;101188.53;5058752;28;840;-60
2022/05/27 05:52:34;;;;;;;;;;;;;;;16.41;41.69;101184.88;5059327;28;780;-60
2022/05/27 05:54:59;;;;;;;;;;;;;;;16.40;41.76;101184.06;5058644;28;1041;-61
2022/05/27 05:57:25;;;;;;;;;;;;;;;16.39;41.79;101179.66;5063474;28;1286;-60
2022/05/27 05:59:50;;;;;;;;;;;;;;;16.43;41.54;101172.56;5059187;28;781;-61
2022/05/27 06:02:16;;;;;;;;;;;;;;;16.49;41.43;101180.84;5058330;28;1914;-60
2022/05/27 06:04:41;;;;;;;;;;;;;;;16.43;41.55;101167.06;5056891;28;860;-61
2022/05/27 06:07:07;;;;;;;;;;;;;;;16.43;41.62;101178.03;5060728;28;826;-60
2022/05/27 06:09:33;;;;;;;;;;;;;;;16.44;41.77;101173.41;5057536;28;1096;-60
2022/05/27 06:11:59;;;;;;;;;;;;;;;16.43;41.48;101169.81;5075610;28;1420;-60
2022/05/27 06:14:25;;;;;;;;;;;;;;;16.41;41.37;101169.25;5079068;28;1179;-60
2022/05/27 06:16:50;;;;;;;;;;;;;;;16.39;41.38;101165.94;5064375;28;854;-60
2022/05/27 06:19:16;;;;;;;;;;;;;;;16.32;41.65;101157.09;5063954;28;825;-60
2022/05/27 06:21:41;;;;;;;;;;;;;;;16.30;41.75;101153.81;5060003;28;1975;-61
2022/05/27 06:24:07;;;;;;;;;;;;;;;16.42;41.54;101165.44;5058965;28;1195;-59
2022/05/27 06:26:32;;;;;;;;;;;;;;;16.40;41.42;101162.09;5070920;28;1016;-61
2022/05/27 06:34:29;;;;;;;;;;;;;;;16.31;41.53;101155.44;5060233;28;854;-63
2022/05/27 06:36:58;;;;;;;;;;;;;;;16.40;41.50;101159.34;5059583;28;849;-63
2022/05/27 06:39:24;;;;;;;;;;;;;;;16.39;41.61;101159.63;5059730;28;917;-62
2022/05/27 06:41:50;;;;;;;;;;;;;;;16.35;41.59;101153.00;5059891;28;1975;-61
2022/05/27 06:44:16;;;;;;;;;;;;;;;16.37;41.85;101153.59;5063452;28;826;-60
2022/05/27 06:46:42;;;;;;;;;;;;;;;16.35;41.48;101158.50;5062006;28;856;-60
2022/05/27 06:49:07;;;;;;;;;;;;;;;16.42;41.43;101161.84;5059310;28;846;-59
2022/05/27 06:51:36;;;;;;;;;;;;;;;16.35;41.54;101144.78;5058614;28;907;-59
2022/05/27 06:54:02;;;;;;;;;;;;;;;16.41;41.49;101152.78;5060097;28;891;-60
2022/05/27 06:56:28;;;;;;;;;;;;;;;16.32;42.00;101148.88;5061721;28;885;-59
2022/05/27 06:58:53;;;;;;;;;;;;;;;16.34;41.94;101141.22;5060338;28;891;-60
2022/05/27 07:01:19;;;;;;;;;;;;;;;16.39;41.92;101143.16;5062579;28;1906;-60
2022/05/27 07:03:44;;;;;;;;;;;;;;;16.37;42.02;101148.09;5061239;28;1073;-59
2022/05/27 07:06:10;;;;;;;;;;;;;;;16.38;41.73;101147.84;5060879;28;942;-60
2022/05/27 07:08:36;;;;;;;;;;;;;;;16.37;41.98;101151.66;5060939;28;900;-60
2022/05/27 07:11:01;;;;;;;;;;;;;;;16.34;41.91;101146.69;5063971;28;860;-59
2022/05/27 07:13:27;;;;;;;;;;;;;;;16.30;42.25;101144.72;5060567;28;919;-60
2022/05/27 07:15:52;;;;;;;;;;;;;;;16.34;42.12;101146.69;5060637;28;1458;-59
2022/05/27 07:18:18;;;;;;;;;;;;;;;16.30;42.26;101141.97;5063832;28;892;-60
2022/05/27 07:20:44;;;;;;;;;;;;;;;16.31;42.32;101146.38;5060519;28;897;-60
2022/05/27 07:23:09;;;;;;;;;;;;;;;16.32;42.03;101143.38;5060501;28;1909;-59
2022/05/27 07:25:35;;;;;;;;;;;;;;;16.29;42.38;101149.41;5058728;28;877;-59
2022/05/27 07:28:01;;;;;;;;;;;;;;;16.37;42.13;101145.34;5056295;28;922;-59
2022/05/27 07:30:27;;;;;;;;;;;;;;;16.37;42.19;101145.34;5055605;28;1020;-60
2022/05/27 07:32:52;;;;;;;;;;;;;;;16.37;42.02;101142.59;5055995;28;814;-58
2022/05/27 07:35:18;;;;;;;;;;;;;;;16.30;41.62;101140.09;5058141;28;895;-60
2022/05/27 07:37:43;;;;;;;;;;;;;;;16.22;41.60;101137.81;5057303;28;886;-60
2022/05/27 07:40:09;;;;;;;;;;;;;;;16.17;41.36;101140.50;5056220;28;1034;-59
2022/05/27 07:42:34;;;;;;;;;;;;;;;16.14;41.55;101149.28;5057257;28;1894;-59
2022/05/27 07:45:00;;;;;;;;;;;;;;;16.18;41.47;101143.00;5059522;28;917;-58
2022/05/27 07:47:25;;;;;;;;;;;;;;;16.19;41.19;101144.66;5055839;28;1123;-59
2022/05/27 07:49:51;;;;;;;;;;;;;;;16.10;41.31;101142.66;5061400;28;1203;-59
2022/05/27 07:52:16;;;;;;;;;;;;;;;16.10;41.15;101143.47;5061804;28;995;-57
2022/05/27 07:54:41;;;;;;;;;;;;;;;16.11;41.07;101147.88;5063355;28;1002;-60
2022/05/27 07:57:23;;;;;;;;;;;;;;;16.16;41.01;101138.84;5059762;28;964;-59
2022/05/27 07:59:50;;;;;;;;;;;;;;;16.14;41.14;101141.03;5059403;28;979;-59
2022/05/27 08:02:15;;;;;;;;;;;;;;;16.07;41.11;101141.25;5057544;28;1897;-61
2022/05/27 08:04:41;;;;;;;;;;;;;;;16.07;41.30;101136.63;5064269;28;941;-59
2022/05/27 08:07:07;;;;;;;;;;;;;;;16.04;41.48;101133.56;5059195;28;828;-59
2022/05/27 08:09:32;;;;;;;;;;;;;;;16.05;41.05;101137.97;5057134;28;880;-59
2022/05/27 08:11:58;;;;;;;;;;;;;;;16.04;41.25;101137.13;5064727;28;876;-59
2022/05/27 08:14:23;;;;;;;;;;;;;;;16.04;41.06;101142.59;5063631;28;1204;-60
2022/05/27 08:16:49;;;;;;;;;;;;;;;16.00;41.36;101144.22;5058044;28;965;-58
2022/05/27 08:19:15;;;;;;;;;;;;;;;16.06;41.13;101148.66;5057775;28;1010;-59
2022/05/27 08:21:40;;;;;;;;;;;;;;;16.10;41.26;101140.72;5059733;28;1914;-60
2022/05/27 08:24:09;;;;;;;;;;;;;;;16.03;41.12;101142.88;5039439;28;1525;-59
2022/05/27 08:26:34;;;;;;;;;;;;;;;16.06;41.35;101131.34;5053969;28;952;-59
2022/05/27 08:29:00;;;;;;;;;;;;;;;16.05;41.30;101132.47;5057107;28;880;-59
2022/05/27 08:31:25;;;;;;;;;;;;;;;16.08;41.34;101141.00;5055772;28;896;-59
2022/05/27 08:39:18;;;;;;;;;;;;;;;15.95;41.32;101133.22;5055138;28;939;-59
2022/05/27 08:41:44;;;;;;;;;;;;;;;15.99;41.54;101141.72;5060699;28;1968;-59
2022/05/27 08:44:15;;;;;;;;;;;;;;;16.04;41.54;101130.81;5055075;28;961;-60
2022/05/27 08:46:53;;;;;;;;;;;;;;;16.06;41.45;101134.94;5056321;28;1062;-58
2022/05/27 08:49:22;;;;;;;;;;;;;;;16.05;41.70;101132.47;5056698;28;1210;-60
2022/05/27 08:52:17;;;;;;;;;;;;;;;16.00;41.35;101127.75;5054783;28;862;-59
2022/05/27 08:54:44;;;;;;;;;;;;;;;16.02;41.56;101128.34;5043389;28;1444;-60
2022/05/27 08:59:56;;;;;;;;;;;;;;;16.01;41.39;101132.16;5063340;28;953;-59
2022/05/27 09:02:33;;;;;;;;;;;;;;;16.07;41.37;101133.88;5040505;28;1975;-59
2022/05/27 09:05:15;;;;;;;;;;;;;;;16.08;41.37;101123.72;5040088;28;872;-59
2022/05/27 09:07:53;;;;;;;;;;;;;;;16.08;41.00;101123.72;5044142;28;832;-59
2022/05/27 09:10:20;;;;;;;;;;;;;;;16.03;41.26;101119.03;5038696;28;1006;-59
2022/05/27 09:12:54;;;;;;;;;;;;;;;16.07;41.39;101117.41;5056341;28;788;-58
2022/05/27 09:15:36;;;;;;;;;;;;;;;16.13;41.28;101131.16;5058812;28;1200;-59
2022/05/27 09:18:07;;;;;;;;;;;;;;;16.08;41.25;101124.53;5037588;28;825;-58
2022/05/27 09:20:42;;;;;;;;;;;;;;;16.16;41.06;101120.50;5054434;28;873;-60
2022/05/27 09:23:08;;;;;;;;;;;;;;;16.16;40.82;101127.88;5056506;28;1982;-60
2022/05/27 09:25:52;;;;;;;;;;;;;;;16.14;41.07;101119.09;5062972;28;884;-60
2022/05/27 09:28:20;;;;;;;;;;;;;;;16.01;41.50;101103.91;5058836;28;793;-61
2022/05/27 09:30:46;;;;;;;;;;;;;;;16.13;41.17;101117.44;5053856;28;1035;-59
2022/05/27 09:33:12;;;;;;;;;;;;;;;16.10;40.99;101113.28;5037577;28;943;-61
2022/05/27 09:35:45;;;;;;;;;;;;;;;16.06;41.04;101107.53;5060040;28;860;-61
2022/05/27 09:38:31;;;;;;;;;;;;;;;16.12;41.05;101115.78;5059773;28;865;-60
2022/05/27 09:41:11;;;;;;;;;;;;;;;16.13;41.13;101114.69;5055470;28;1652;-60
2022/05/27 09:43:41;;;;;;;;;;;;;;;16.08;41.21;101115.47;5062329;28;1913;-60
2022/05/27 09:46:07;;;;;;;;;;;;;;;16.08;41.09;101113.56;5040762;28;914;-61
2022/05/27 09:48:33;;;;;;;;;;;;;;;16.03;41.10;101107.19;5034494;28;1230;-59
2022/05/27 09:51:02;;;;;;;;;;;;;;;16.03;41.05;101107.19;5056059;28;1140;-59
2022/05/27 09:53:38;;;;;;;;;;;;;;;16.07;41.26;101111.94;5054614;28;1025;-60
2022/05/27 09:56:04;;;;;;;;;;;;;;;16.05;41.01;101103.13;5059038;28;1368;-60
2022/05/27 09:58:37;;;;;;;;;;;;;;;16.08;41.16;101097.09;5052873;28;1076;-60
2022/05/27 10:01:03;;;;;;;;;;;;;;;15.99;41.42;101095.94;5056819;28;1321;-61
2022/05/27 10:03:36;;;;;;;;;;;;;;;16.05;41.09;101102.31;5059609;28;1984;-61
2022/05/27 10:06:02;;;;;;;;;;;;;;;16.03;41.16;101094.34;5058120;28;1266;-60
2022/05/27 10:08:28;;;;;;;;;;;;;;;16.11;41.21;101098.50;5055570;28;964;-61
2022/05/27 10:11:10;;;;;;;;;;;;;;;16.13;40.87;101104.56;5056556;28;1182;-60
2022/05/27 10:13:36;;;;;;;;;;;;;;;16.11;41.02;101101.25;5039886;28;977;-61
2022/05/27 10:16:08;;;;;;;;;;;;;;;16.02;41.22;101089.94;5058439;28;1238;-60
2022/05/27 10:18:33;;;;;;;;;;;;;;;16.12;40.62;101091.94;5057331;28;1076;-60
2022/05/27 10:21:01;;;;;;;;;;;;;;;16.04;41.19;101093.22;5057630;28;957;-60
2022/05/27 10:23:30;;;;;;;;;;;;;;;16.03;41.27;101096.22;5056666;28;1902;-62
2022/05/27 10:25:55;;;;;;;;;;;;;;;15.92;40.98;101070.63;5059644;28;937;-60
2022/05/27 10:28:29;;;;;;;;;;;;;;;15.96;41.36;101090.97;5055702;28;1022;-61
2022/05/27 10:31:02;;;;;;;;;;;;;;;16.04;41.08;101087.72;5054931;28;1162;-60
2022/05/27 10:33:40;;;;;;;;;;;;;;;15.97;41.19;101084.41;5055377;28;964;-60
2022/05/27 10:36:24;;;;;;;;;;;;;;;16.08;40.97;101088.06;5058309;28;1014;-61
2022/05/27 10:39:02;;;;;;;;;;;;;;;15.99;41.19;101084.97;5057860;28;960;-59
2022/05/27 10:41:41;;;;;;;;;;;;;;;16.04;41.28;101076.75;5059356;28;1906;-60
2022/05/27 10:44:21;;;;;;;;;;;;;;;15.96;41.33;101069.03;5038754;28;910;-62
2022/05/27 10:46:54;;;;;;;;;;;;;;;16.03;40.90;101066.91;5058277;28;940;-60
2022/05/27 10:49:39;;;;;;;;;;;;;;;16.00;41.21;101069.34;5040324;28;1214;-60
2022/05/27 10:52:24;;;;;;;;;;;;;;;15.99;41.25;101068.53;5040684;28;1033;-60
2022/05/27 10:54:51;;;;;;;;;;;;;;;16.01;41.38;101066.31;5056058;28;1086;-60
2022/05/27 11:03:09;;;;;;;;;;;;;;;15.97;41.27;101070.69;5048707;28;1972;-60
2022/05/27 11:05:38;;;;;;;;;;;;;;;16.03;41.15;101053.19;5060532;28;880;-60
2022/05/27 11:08:04;;;;;;;;;;;;;;;16.16;41.03;101062.03;5062077;28;929;-60
2022/05/27 11:10:32;;;;;;;;;;;;;;;16.02;41.01;101056.16;5061894;28;966;-61
2022/05/27 11:16:12;;;;;;;;;;;;;;;15.99;40.97;101046.56;5044248;28;1050;-60
2022/05/27 11:18:38;;;;;;;;;;;;;;;15.99;41.23;101054.81;5061918;28;850;-60
2022/05/27 11:21:06;;;;;;;;;;;;;;;15.98;41.10;101044.09;5054657;28;825;-60
2022/05/27 11:23:38;;;;;;;;;;;;;;;16.00;40.92;101041.91;5051547;28;1991;-60
2022/05/27 11:26:06;;;;;;;;;;;;;;;15.99;41.36;101045.72;5053840;28;850;-60
2022/05/27 11:28:40;;;;;;;;;;;;;;;16.00;41.30;101034.50;5058621;28;813;-60
2022/05/27 11:31:20;;;;;;;;;;;;;;;15.99;41.15;101035.59;5043887;28;812;-61
2022/05/27 11:33:49;;;;;;;;;;;;;;;15.99;40.90;101030.13;5061192;28;947;-61
2022/05/27 11:36:33;;;;;;;;;;;;;;;16.03;41.08;101024.91;5061898;28;1031;-60
2022/05/27 11:39:04;;;;;;;;;;;;;;;16.05;40.92;101028.25;5059046;28;794;-60
2022/05/27 11:41:48;;;;;;;;;;;;;;;15.94;41.00;101015.53;5058651;28;1910;-60
2022/05/27 11:44:22;;;;;;;;;;;;;;;16.01;41.11;101019.69;5073514;28;825;-60
2022/05/27 11:47:06;;;;;;;;;;;;;;;15.99;41.04;101008.19;5070244;28;922;-60
2022/05/27 11:49:35;;;;;;;;;;;;;;;16.12;41.72;101015.13;5059352;28;1502;-60
2022/05/27 11:52:04;;;;;;;;;;;;;;;16.29;42.48;101017.69;5058488;28;877;-60
2022/05/27 11:54:35;;;;;;;;;;;;;;;16.59;43.56;101021.66;5058703;28;787;-60
2022/05/27 11:57:19;;;;;;;;;;;;;;;16.75;44.57;101012.41;5058017;28;1423;-59
2022/05/27 11:59:56;;;;;;;;;;;;;;;16.92;45.35;101011.41;5072748;28;886;-60
2022/05/27 12:02:21;;;;;;;;;;;;;;;16.93;46.13;101011.13;5045175;28;1901;-60
2022/05/27 12:05:01;;;;;;;;;;;;;;;17.03;46.34;100999.34;5057874;28;767;-62
2022/05/27 12:07:29;;;;;;;;;;;;;;;17.17;46.76;100993.34;5040908;28;766;-62
2022/05/27 12:10:07;;;;;;;;;;;;;;;17.20;46.50;100993.59;5057854;28;1450;-61
2022/05/27 12:12:33;;;;;;;;;;;;;;;17.08;45.60;100991.13;5057560;28;885;-60
2022/05/27 12:15:00;;;;;;;;;;;;;;;16.88;44.63;100989.13;5064290;28;1084;-59
2022/05/27 12:17:42;;;;;;;;;;;;;;;16.81;43.69;100990.47;5040356;28;975;-60
2022/05/27 12:20:08;;;;;;;;;;;;;;;16.73;42.99;100987.16;5071158;28;849;-60
2022/05/27 12:22:35;;;;;;;;;;;;;;;16.63;42.49;100978.03;5075117;28;1901;-60
2022/05/27 12:25:02;;;;;;;;;;;;;;;16.58;41.86;100970.63;5063334;28;1301;-61
2022/05/27 12:27:27;;;;;;;;;;;;;;;16.59;41.60;100967.59;5061414;28;984;-61
2022/05/27 12:29:53;;;;;;;;;;;;;;;16.54;41.35;100964.81;5077090;28;852;-61
2022/05/27 12:32:22;;;;;;;;;;;;;;;16.53;40.77;100962.34;5062908;28;814;-60
2022/05/27 12:34:48;;;;;;;;;;;;;;;16.46;40.90;100956.28;5073728;28;1119;-59
2022/05/27 12:37:16;;;;;;;;;;;;;;;16.50;40.90;100957.41;5067807;28;1064;-59
2022/05/27 12:39:42;;;;;;;;;;;;;;;16.36;40.81;100962.56;5069277;28;1390;-60
2022/05/27 12:42:08;;;;;;;;;;;;;;;16.30;40.75;100956.22;5069790;28;1907;-60
2022/05/27 12:44:33;;;;;;;;;;;;;;;16.33;40.90;100955.69;5067044;28;1262;-61
2022/05/27 12:46:59;;;;;;;;;;;;;;;16.32;40.86;100948.53;5068277;28;1142;-60
2022/05/27 12:49:41;;;;;;;;;;;;;;;16.22;40.77;100945.75;5069146;28;1040;-60
2022/05/27 12:52:08;;;;;;;;;;;;;;;16.30;40.67;100945.25;5047220;28;1243;-60
2022/05/27 12:54:42;;;;;;;;;;;;;;;16.24;40.72;100952.63;5066963;28;1201;-60
2022/05/27 13:03:03;;;;;;;;;;;;;;;16.21;40.61;100941.34;5069098;28;1910;-61
2022/05/27 13:05:49;;;;;;;;;;;;;;;16.20;40.65;100932.31;5045155;28;1301;-60
2022/05/27 13:08:18;;;;;;;;;;;;;;;16.21;40.85;100941.34;5070979;28;1906;-62
2022/05/27 13:10:44;;;;;;;;;;;;;;;16.13;40.58;100939.97;5075659;28;779;-60
2022/05/27 13:13:10;;;;;;;;;;;;;;;16.20;40.50;100936.94;5075878;28;857;-60
2022/05/27 13:15:48;;;;;;;;;;;;;;;16.46;43.60;100931.59;5052398;28;1217;-63
2022/05/27 13:18:26;;;;;;;;;;;;;;;16.60;44.11;100929.97;5042794;28;896;-62
2022/05/27 13:21:01;;;;;;;;;;;;;;;16.38;43.31;100931.03;5056687;28;860;-62
2022/05/27 13:23:27;;;;;;;;;;;;;;;16.33;42.29;100925.50;5055158;28;1905;-61
2022/05/27 13:26:13;;;;;;;;;;;;;;;16.43;42.64;100931.00;5037755;28;840;-61
2022/05/27 13:28:39;;;;;;;;;;;;;;;16.42;42.79;100920.31;5056628;28;762;-62
2022/05/27 13:31:12;;;;;;;;;;;;;;;16.31;42.24;100916.69;5043799;28;1039;-62
2022/05/27 13:33:37;;;;;;;;;;;;;;;16.40;41.64;100914.28;5056560;28;1124;-62
2022/05/27 13:36:03;;;;;;;;;;;;;;;16.39;41.27;100920.84;5056257;28;760;-62
2022/05/27 13:38:37;;;;;;;;;;;;;;;16.36;41.11;100908.50;5038513;28;1203;-63